Time;durP1;ratioP1;P1;durP2;ratioP2;P2;SDS_P1;SDS_P2;PMS_P1;PMS_P2;Temp;Humidity;BMP_temperature;BMP_pressure;BME280_temperature;BME280_humidity;BME280_pressure;Samples;Min_cycle;Max_cycle;Signal;HPM_P1;HPM_P2
2021/01/18 00:00:56;;;;;;;62.13;31.00;;;;;;;0.43;96.57;99559.00;4889777;29;20060;-77
2021/01/18 00:03:21;;;;;;;56.22;31.05;;;;;;;0.37;96.57;99566.47;4890152;29;20108;-78
2021/01/18 00:05:47;;;;;;;53.97;29.20;;;;;;;0.46;96.67;99565.09;4890952;29;20205;-78
2021/01/18 00:08:12;;;;;;;52.78;29.55;;;;;;;0.47;96.29;99555.75;4890688;29;20036;-78
2021/01/18 00:10:37;;;;;;;45.08;25.15;;;;;;;0.46;96.58;99559.13;4890815;29;20087;-78
2021/01/18 00:13:03;;;;;;;49.20;24.08;;;;;;;0.42;96.82;99562.38;4890869;29;20056;-78
2021/01/18 00:15:28;;;;;;;41.22;24.27;;;;;;;0.39;96.91;99562.31;4889908;29;20127;-77
2021/01/18 00:17:54;;;;;;;48.00;24.48;;;;;;;0.39;96.98;99567.41;4890867;29;20119;-78
2021/01/18 00:20:21;;;;;;;47.22;25.10;;;;;;;0.49;97.23;99554.16;4890706;29;20029;-78
2021/01/18 00:22:48;;;;;;;43.83;23.35;;;;;;;0.48;97.23;99557.50;4890619;29;20468;-78
2021/01/18 00:25:16;;;;;;;44.67;25.77;;;;;;;0.47;97.08;99550.66;4890566;29;20083;-77
2021/01/18 00:27:42;;;;;;;49.95;26.55;;;;;;;0.41;96.97;99548.78;4890426;29;20446;-77
2021/01/18 00:30:10;;;;;;;46.35;23.80;;;;;;;0.46;97.01;99551.50;4890541;29;20170;-77
2021/01/18 00:32:36;;;;;;;41.85;22.73;;;;;;;0.41;96.47;99550.47;4890357;29;20032;-77
2021/01/18 00:35:03;;;;;;;41.72;24.23;;;;;;;0.41;96.65;99545.38;4890543;29;20037;-77
2021/01/18 00:37:28;;;;;;;40.35;22.92;;;;;;;0.27;96.63;99556.75;4890398;29;20028;-77
2021/01/18 00:39:53;;;;;;;45.03;23.52;;;;;;;0.47;97.25;99558.31;4890497;29;20043;-77
2021/01/18 00:42:20;;;;;;;45.08;24.45;;;;;;;0.38;97.06;99560.53;4890115;29;20521;-77
2021/01/18 00:44:46;;;;;;;47.63;25.77;;;;;;;0.43;97.52;99553.91;4890107;29;20063;-77
2021/01/18 00:47:11;;;;;;;42.92;22.98;;;;;;;0.39;97.35;99552.97;4890208;29;20149;-77
2021/01/18 00:49:36;;;;;;;42.72;22.90;;;;;;;0.37;97.33;99553.72;4890045;29;20047;-77
2021/01/18 00:52:02;;;;;;;42.28;22.13;;;;;;;0.35;97.32;99552.81;4890142;29;20028;-77
2021/01/18 00:54:27;;;;;;;39.78;21.67;;;;;;;0.42;97.00;99552.19;4890097;29;20132;-77
2021/01/18 00:56:52;;;;;;;45.75;24.42;;;;;;;0.43;96.89;99556.47;4890145;29;20115;-77
2021/01/18 00:59:18;;;;;;;46.72;24.42;;;;;;;0.31;97.10;99561.16;4889966;29;20031;-77
2021/01/18 07:02:27;;;;;;;29.03;9.80;;;;;;;1.36;92.16;99717.00;5158008;23;19978;-75
2021/01/18 07:05:05;;;;;;;21.15;9.82;;;;;;;1.13;92.90;99713.66;4929662;29;20431;-75
2021/01/18 07:07:37;;;;;;;25.90;11.50;;;;;;;1.02;92.89;99715.84;4929697;29;20043;-74
2021/01/18 07:10:08;;;;;;;19.23;9.85;;;;;;;1.14;93.04;99721.34;4929566;29;20042;-75
2021/01/18 07:12:33;;;;;;;20.20;10.27;;;;;;;0.92;94.20;99723.94;4910300;29;20032;-75
2021/01/18 07:15:05;;;;;;;31.17;10.63;;;;;;;1.12;93.45;99723.00;4911259;29;20043;-75
2021/01/18 07:17:50;;;;;;;18.80;10.43;;;;;;;1.29;92.28;99731.22;4910335;29;20028;-74
2021/01/18 07:20:28;;;;;;;22.23;9.98;;;;;;;1.03;92.71;99735.44;4909957;29;20508;-74
2021/01/18 07:23:15;;;;;;;38.83;16.05;;;;;;;1.26;92.34;99734.53;4910224;29;20036;-75
2021/01/18 07:25:48;;;;;;;58.47;21.15;;;;;;;1.29;92.49;99736.31;4910285;29;20035;-74
2021/01/18 07:28:23;;;;;;;29.05;13.73;;;;;;;1.36;91.74;99740.84;4910166;29;20031;-74
2021/01/18 07:30:49;;;;;;;30.67;20.25;;;;;;;1.21;92.84;99743.72;4910213;29;20130;-74
2021/01/18 07:33:16;;;;;;;32.10;16.63;;;;;;;1.15;93.50;99747.72;4910210;29;20168;-75
2021/01/18 07:35:43;;;;;;;31.73;17.00;;;;;;;1.17;93.59;99752.09;4910130;29;20166;-74
2021/01/18 07:38:19;;;;;;;23.90;10.90;;;;;;;1.45;92.32;99747.91;4910094;29;20074;-74
2021/01/18 07:41:06;;;;;;;21.90;11.40;;;;;;;1.25;92.05;99754.88;4910069;29;20032;-74
2021/01/18 07:43:36;;;;;;;22.85;11.98;;;;;;;1.24;92.96;99759.13;4909907;29;20127;-74
2021/01/18 07:46:30;;;;;;;28.05;13.23;;;;;;;1.17;92.91;99762.31;4909724;29;20032;-74
2021/01/18 07:49:20;;;;;;;20.38;12.75;;;;;;;1.17;94.02;99766.53;4907195;29;20044;-74
2021/01/18 07:51:45;;;;;;;25.98;14.00;;;;;;;1.19;95.04;99770.00;4908483;29;20043;-74
2021/01/18 07:54:33;;;;;;;24.30;13.23;;;;;;;1.25;93.60;99768.53;4909889;29;20036;-75
2021/01/18 07:57:23;;;;;;;24.38;12.82;;;;;;;1.27;93.94;99773.69;4909671;29;20036;-74
2021/01/18 07:59:48;;;;;;;26.50;12.73;;;;;;;1.28;93.44;99771.19;4910078;29;20028;-75
2021/01/18 08:02:23;;;;;;;23.45;11.15;;;;;;;1.21;92.97;99776.91;4909223;29;20040;-75
2021/01/18 08:04:48;;;;;;;25.17;12.65;;;;;;;1.29;93.29;99777.16;4909559;29;20038;-75
2021/01/18 08:07:13;;;;;;;26.90;14.30;;;;;;;1.28;93.64;99778.84;4909459;29;20032;-75
2021/01/18 08:09:39;;;;;;;24.42;13.23;;;;;;;1.29;94.19;99780.59;4909611;29;20813;-74
2021/01/18 08:12:33;;;;;;;29.83;15.23;;;;;;;1.20;93.94;99781.94;4904931;29;20040;-74
2021/01/18 08:15:05;;;;;;;31.70;15.75;;;;;;;1.34;93.96;99779.88;4884923;29;20039;-75
2021/01/18 08:17:31;;;;;;;24.60;13.65;;;;;;;1.38;94.21;99786.84;4884757;29;20033;-75
2021/01/18 08:20:16;;;;;;;30.48;15.40;;;;;;;1.43;93.64;99790.41;4884830;29;20036;-74
2021/01/18 08:22:42;;;;;;;24.55;13.45;;;;;;;1.53;92.94;99785.66;4884776;29;20077;-75
2021/01/18 08:25:08;;;;;;;26.88;11.25;;;;;;;1.46;92.45;99790.53;4884590;29;20035;-75
2021/01/18 08:27:41;;;;;;;27.63;12.48;;;;;;;1.33;93.14;99798.56;4898783;29;20040;-75
2021/01/18 08:30:18;;;;;;;21.30;11.43;;;;;;;1.32;93.09;99796.84;4884467;29;20060;-75
2021/01/18 08:32:55;;;;;;;25.35;11.98;;;;;;;1.45;93.39;99789.66;4884389;29;20043;-75
2021/01/18 08:35:27;;;;;;;29.52;12.50;;;;;;;1.45;93.85;99794.78;4884437;29;20040;-74
2021/01/18 08:38:06;;;;;;;35.00;13.23;;;;;;;1.39;92.67;99794.53;4884616;29;20786;-75
2021/01/18 08:40:48;;;;;;;23.55;11.85;;;;;;;1.54;92.98;99795.06;4884090;29;20059;-74
2021/01/18 08:43:15;;;;;;;25.13;10.48;;;;;;;1.57;91.67;99796.88;4884569;29;20082;-75
2021/01/18 08:45:44;;;;;;;19.02;10.27;;;;;;;1.57;91.03;99794.31;4884182;29;20111;-75
2021/01/18 08:48:12;;;;;;;18.05;9.23;;;;;;;1.68;90.96;99792.97;4884260;29;20065;-75
2021/01/18 08:50:46;;;;;;;19.17;9.85;;;;;;;1.73;91.69;99794.00;4883670;29;20391;-75
2021/01/18 08:53:40;;;;;;;16.08;9.13;;;;;;;1.67;91.51;99796.34;4884126;29;20429;-75
2021/01/18 08:56:07;;;;;;;22.67;8.52;;;;;;;1.78;91.80;99795.03;4883883;29;20036;-75
2021/01/18 08:58:43;;;;;;;17.05;8.75;;;;;;;1.85;91.76;99797.81;4883918;29;20040;-75
2021/01/18 09:01:19;;;;;;;16.17;8.88;;;;;;;1.85;91.47;99795.25;4883707;29;20041;-75
2021/01/18 09:03:44;;;;;;;19.35;9.77;;;;;;;1.86;90.37;99796.97;4883446;29;20127;-75
2021/01/18 09:06:11;;;;;;;17.27;9.32;;;;;;;1.82;90.91;99800.25;4884165;29;20516;-75
2021/01/18 09:08:39;;;;;;;28.63;14.77;;;;;;;1.95;90.45;99802.41;4883422;29;21158;-75
2021/01/18 09:11:07;;;;;;;15.00;9.10;;;;;;;2.04;90.33;99798.44;4883890;29;20119;-75
2021/01/18 09:13:34;;;;;;;20.42;9.00;;;;;;;2.16;89.77;99797.09;4883474;29;20036;-75
2021/01/18 09:16:03;;;;;;;14.35;8.02;;;;;;;2.23;89.07;99799.91;4883773;29;20028;-75
2021/01/18 09:18:29;;;;;;;14.38;8.73;;;;;;;2.28;89.08;99803.47;4883515;29;20025;-75
2021/01/18 09:20:58;;;;;;;19.10;9.32;;;;;;;2.41;89.57;99804.72;4883281;29;20037;-75
2021/01/18 09:23:27;;;;;;;21.92;8.75;;;;;;;2.62;87.59;99799.41;4883622;29;20029;-75
2021/01/18 09:26:03;;;;;;;15.25;9.10;;;;;;;2.66;87.69;99793.56;4883584;29;20040;-75
2021/01/18 09:28:29;;;;;;;13.13;6.57;;;;;;;2.86;87.69;99788.16;4883279;29;20119;-75
2021/01/18 09:30:54;;;;;;;21.67;7.82;;;;;;;3.17;87.06;99785.63;4883096;29;20150;-75
2021/01/18 09:33:25;;;;;;;18.92;7.40;;;;;;;3.53;83.48;99795.13;4883722;29;20482;-75
2021/01/18 09:35:51;;;;;;;12.00;7.57;;;;;;;3.55;84.03;99788.38;4883581;29;20100;-75
2021/01/18 09:38:16;;;;;;;19.95;7.85;;;;;;;3.70;84.41;99793.91;4883397;29;20343;-75
2021/01/18 09:40:43;;;;;;;17.25;6.63;;;;;;;3.87;82.37;99791.78;4882847;29;20599;-75
2021/01/18 09:43:10;;;;;;;16.15;7.55;;;;;;;3.98;81.28;99795.47;4883229;29;20115;-75
2021/01/18 09:45:36;;;;;;;10.52;6.78;;;;;;;4.11;80.03;99796.66;4883326;29;20039;-75
2021/01/18 09:48:07;;;;;;;18.27;7.25;;;;;;;3.57;82.09;99802.09;4883045;29;20032;-75
2021/01/18 09:50:34;;;;;;;10.35;7.13;;;;;;;3.54;81.69;99794.34;4882909;29;20032;-75
2021/01/18 09:53:09;;;;;;;15.43;7.20;;;;;;;3.80;81.68;99795.88;4883083;29;20084;-75
2021/01/18 09:55:59;;;;;;;15.63;6.90;;;;;;;3.86;81.20;99801.13;4882873;29;20041;-75
2021/01/18 09:58:58;;;;;;;10.35;6.63;;;;;;;3.64;81.25;99793.75;4883261;29;20383;-75
2021/01/18 10:01:26;;;;;;;11.25;5.72;;;;;;;4.00;80.48;99798.06;4882555;29;20708;-74
2021/01/18 10:03:58;;;;;;;11.02;5.78;;;;;;;4.21;80.16;99788.34;4882841;29;20037;-75
2021/01/18 10:06:28;;;;;;;7.75;5.50;;;;;;;4.30;78.94;99778.28;4882664;29;20116;-74
2021/01/18 10:09:15;;;;;;;15.50;6.80;;;;;;;4.41;78.94;99782.81;4882909;29;20044;-74
2021/01/18 10:11:48;;;;;;;12.60;6.80;;;;;;;4.52;77.91;99781.34;4882400;29;20037;-74
2021/01/18 10:14:23;;;;;;;20.38;9.65;;;;;;;4.31;79.94;99774.91;4882657;29;20029;-74
2021/01/18 10:17:09;;;;;;;14.40;6.50;;;;;;;4.58;78.31;99778.91;4882467;29;20028;-74
2021/01/18 10:19:39;;;;;;;13.73;6.32;;;;;;;4.46;78.61;99773.50;4882980;29;20413;-75
2021/01/18 10:22:18;;;;;;;13.30;7.28;;;;;;;4.32;80.43;99766.34;4882338;29;20482;-75
2021/01/18 10:24:54;;;;;;;23.23;10.35;;;;;;;4.34;79.17;99769.81;4882577;29;20033;-74
2021/01/18 10:27:28;;;;;;;19.42;8.25;;;;;;;3.89;81.72;99763.59;4882720;29;20043;-75
2021/01/18 10:30:19;;;;;;;11.88;7.22;;;;;;;3.91;81.74;99764.50;4882719;29;20029;-75
2021/01/18 10:32:47;;;;;;;24.55;10.73;;;;;;;4.06;81.76;99758.06;4882271;29;20036;-74
2021/01/18 10:35:24;;;;;;;27.02;10.50;;;;;;;3.98;81.46;99763.84;4882144;29;20491;-75
2021/01/18 10:37:50;;;;;;;26.67;10.82;;;;;;;3.99;80.81;99760.44;4882577;29;20025;-74
2021/01/18 10:40:20;;;;;;;18.60;8.27;;;;;;;3.75;81.74;99759.00;4882603;29;20032;-74
2021/01/18 10:42:52;;;;;;;13.02;6.32;;;;;;;3.56;83.33;99762.78;4882345;29;20067;-74
2021/01/18 10:45:22;;;;;;;12.40;6.72;;;;;;;3.80;82.12;99756.56;4882308;29;20390;-75
2021/01/18 10:48:01;;;;;;;11.55;6.35;;;;;;;3.81;80.76;99758.28;4882213;29;20040;-74
2021/01/18 10:50:28;;;;;;;15.90;6.78;;;;;;;3.62;81.66;99749.25;4882035;29;20414;-74
2021/01/18 10:53:10;;;;;;;10.90;5.97;;;;;;;3.46;80.80;99758.25;4882992;29;20035;-75
2021/01/18 10:55:36;;;;;;;10.35;5.00;;;;;;;3.65;81.01;99751.91;4882279;29;20112;-75
2021/01/18 10:58:03;;;;;;;7.53;5.22;;;;;;;3.73;80.88;99752.13;4882300;29;20032;-74
2021/01/18 11:00:30;;;;;;;11.48;5.30;;;;;;;3.82;82.23;99749.75;4881777;29;20029;-75
2021/01/18 11:03:01;;;;;;;15.95;7.32;;;;;;;3.85;81.69;99748.13;4882644;29;20057;-74
2021/01/18 11:05:32;;;;;;;12.20;6.53;;;;;;;4.12;81.61;99752.22;4882070;29;20045;-75
2021/01/18 11:08:00;;;;;;;9.60;6.15;;;;;;;4.23;80.95;99749.88;4882000;29;20417;-74
2021/01/18 11:10:26;;;;;;;8.05;5.05;;;;;;;4.43;77.95;99752.91;4881789;29;20395;-75
2021/01/18 11:13:18;;;;;;;14.43;5.97;;;;;;;4.36;79.82;99747.63;4882093;29;20029;-74
2021/01/18 11:15:47;;;;;;;10.20;5.63;;;;;;;4.49;80.33;99753.91;4878900;29;20044;-74
2021/01/18 11:18:14;;;;;;;9.40;5.43;;;;;;;4.55;79.97;99748.06;4896768;29;20581;-74
2021/01/18 11:20:41;;;;;;;8.50;4.80;;;;;;;4.64;78.92;99749.13;4881574;29;20814;-75
2021/01/18 11:23:09;;;;;;;12.07;5.85;;;;;;;4.52;79.49;99748.84;4881965;29;20024;-75
2021/01/18 11:25:36;;;;;;;12.38;5.30;;;;;;;4.70;80.20;99750.09;4882179;29;20465;-75
2021/01/18 11:28:12;;;;;;;12.43;5.60;;;;;;;4.81;77.49;99736.63;4882130;29;20367;-75
2021/01/18 11:30:39;;;;;;;9.70;5.30;;;;;;;4.38;79.77;99745.97;4881949;29;20088;-74
2021/01/18 11:33:06;;;;;;;11.25;4.30;;;;;;;4.50;79.17;99737.69;4881796;29;20037;-75
2021/01/18 11:35:31;;;;;;;8.82;4.70;;;;;;;4.51;77.66;99730.84;4881958;29;20043;-74
2021/01/18 11:37:57;;;;;;;10.75;4.50;;;;;;;4.14;81.14;99732.59;4881999;29;20407;-75
2021/01/18 11:40:22;;;;;;;8.20;4.43;;;;;;;4.35;80.35;99735.66;4881941;29;20028;-75
2021/01/18 11:42:47;;;;;;;17.40;4.30;;;;;;;4.56;79.22;99729.25;4881809;29;20036;-75
2021/01/18 11:45:13;;;;;;;5.80;4.22;;;;;;;4.48;77.34;99730.78;4882135;29;20571;-75
2021/01/18 11:47:39;;;;;;;7.22;4.22;;;;;;;4.36;80.20;99726.25;4884236;29;20029;-75
2021/01/18 11:50:10;;;;;;;12.35;4.28;;;;;;;4.38;79.11;99720.31;4885098;29;20025;-75
2021/01/18 11:52:46;;;;;;;7.32;4.78;;;;;;;4.38;77.89;99722.88;4885285;29;20072;-75
2021/01/18 11:55:16;;;;;;;12.63;5.90;;;;;;;4.15;79.68;99726.63;4884930;29;21190;-74
2021/01/18 11:57:43;;;;;;;6.93;4.55;;;;;;;3.89;80.50;99722.59;4885257;29;20027;-74
2021/01/18 12:00:10;;;;;;;6.78;3.47;;;;;;;3.99;79.95;99719.41;4884827;29;20028;-74
2021/01/18 12:02:35;;;;;;;6.38;3.75;;;;;;;3.85;79.74;99712.25;4884606;29;20036;-74
2021/01/18 12:05:00;;;;;;;8.05;4.15;;;;;;;3.76;80.14;99722.28;4883412;29;20033;-74
2021/01/18 12:07:26;;;;;;;6.82;3.88;;;;;;;3.74;80.69;99718.81;4885192;29;20545;-74
2021/01/18 12:09:51;;;;;;;10.32;4.32;;;;;;;3.79;79.81;99714.69;4885114;29;20124;-74
2021/01/18 12:12:16;;;;;;;9.10;4.45;;;;;;;3.73;79.86;99717.09;4884655;29;20040;-75
2021/01/18 12:14:42;;;;;;;8.70;4.80;;;;;;;3.47;82.52;99718.13;4885069;29;20035;-74
2021/01/18 12:17:07;;;;;;;10.27;5.03;;;;;;;3.70;80.39;99711.88;4884715;29;20053;-74
2021/01/18 12:19:32;;;;;;;10.45;4.63;;;;;;;3.45;82.27;99714.69;4884903;29;20036;-75
2021/01/18 12:21:58;;;;;;;7.30;4.07;;;;;;;3.67;81.14;99711.81;4884410;29;20418;-74
2021/01/18 12:24:24;;;;;;;7.88;4.78;;;;;;;4.03;80.33;99700.72;4884816;29;20529;-74
2021/01/18 12:26:50;;;;;;;10.00;5.32;;;;;;;4.23;78.78;99699.44;4884992;29;20115;-74
2021/01/18 12:29:16;;;;;;;8.88;4.97;;;;;;;4.10;79.79;99700.00;4881347;29;20064;-75
2021/01/18 12:31:41;;;;;;;14.60;6.10;;;;;;;3.91;81.05;99695.28;4884074;29;20190;-74
2021/01/18 12:34:06;;;;;;;10.95;5.20;;;;;;;4.11;80.79;99689.81;4884272;29;20032;-74
2021/01/18 12:36:32;;;;;;;8.75;4.38;;;;;;;3.94;81.76;99696.22;4884380;29;20044;-74
2021/01/18 12:38:58;;;;;;;6.55;4.68;;;;;;;4.18;80.85;99689.94;4884615;29;20035;-74
2021/01/18 12:41:23;;;;;;;11.00;5.88;;;;;;;4.18;79.18;99685.66;4883950;29;20029;-74
2021/01/18 12:43:49;;;;;;;11.40;5.55;;;;;;;4.06;81.93;99687.94;4884590;29;20084;-74
2021/01/18 12:46:18;;;;;;;13.00;5.57;;;;;;;4.12;80.14;99686.41;4884211;29;20036;-74
2021/01/18 12:48:43;;;;;;;12.27;5.20;;;;;;;3.81;81.92;99683.94;4884566;29;20036;-74
2021/01/18 12:51:15;;;;;;;11.82;5.63;;;;;;;3.65;82.91;99687.84;4883389;29;20698;-74
2021/01/18 12:53:45;;;;;;;9.73;6.45;;;;;;;3.82;81.00;99680.53;4898079;29;20032;-74
2021/01/18 12:56:25;;;;;;;9.38;4.90;;;;;;;3.82;82.32;99681.44;4884223;29;20028;-74
2021/01/18 12:58:51;;;;;;;10.02;5.13;;;;;;;3.42;82.17;99688.97;4883656;29;20033;-74
2021/01/18 13:01:16;;;;;;;14.80;5.03;;;;;;;3.42;83.20;99688.97;4883480;29;20040;-74
2021/01/18 13:03:44;;;;;;;11.55;5.50;;;;;;;3.40;83.76;99691.50;4884410;29;20395;-74
2021/01/18 13:06:10;;;;;;;17.40;7.93;;;;;;;3.08;84.81;99693.22;4884209;29;20032;-74
2021/01/18 13:08:35;;;;;;;13.05;5.68;;;;;;;3.39;83.22;99683.78;4884043;29;20398;-74
2021/01/18 13:11:02;;;;;;;10.90;4.68;;;;;;;3.50;83.06;99682.34;4883971;29;20546;-74
2021/01/18 13:13:28;;;;;;;10.02;5.50;;;;;;;3.45;83.18;99679.66;4884286;29;20052;-74
2021/01/18 13:15:53;;;;;;;10.57;4.82;;;;;;;3.65;81.44;99671.59;4884218;29;20446;-74
2021/01/18 13:18:18;;;;;;;12.10;4.15;;;;;;;3.62;80.45;99685.19;4883754;29;20048;-74
2021/01/18 13:20:45;;;;;;;8.30;3.15;;;;;;;3.54;80.38;99684.16;4897223;29;20399;-74
2021/01/18 13:23:10;;;;;;;8.27;3.55;;;;;;;3.57;80.46;99692.78;4883349;29;20032;-74
2021/01/18 13:25:36;;;;;;;15.68;3.50;;;;;;;3.52;80.62;99696.06;4883385;29;20041;-74
2021/01/18 13:28:01;;;;;;;7.55;3.22;;;;;;;3.53;80.35;99697.78;4883458;29;20029;-74
2021/01/18 13:30:26;;;;;;;8.25;3.10;;;;;;;3.50;80.58;99693.47;4882972;29;20047;-75
2021/01/18 13:32:51;;;;;;;10.45;4.13;;;;;;;3.56;80.35;99690.19;4883707;29;20112;-74
2021/01/18 13:35:17;;;;;;;7.63;3.17;;;;;;;3.71;79.31;99677.72;4883189;29;20091;-74
2021/01/18 13:37:42;;;;;;;7.28;3.17;;;;;;;3.78;79.67;99676.19;4883448;29;20115;-74
2021/01/18 13:40:14;;;;;;;7.95;3.70;;;;;;;3.66;79.90;99674.19;4883336;29;20410;-74
2021/01/18 13:42:39;;;;;;;12.73;3.30;;;;;;;3.72;78.41;99673.47;4883015;29;20053;-75
2021/01/18 13:45:05;;;;;;;7.82;2.95;;;;;;;3.52;80.16;99680.69;4883039;29;20036;-74
2021/01/18 13:47:31;;;;;;;8.73;2.60;;;;;;;3.73;79.67;99673.53;4882932;29;20062;-74
2021/01/18 13:49:56;;;;;;;8.05;3.08;;;;;;;3.60;81.10;99674.91;4886483;29;20032;-75
2021/01/18 13:52:21;;;;;;;9.38;3.15;;;;;;;3.71;79.86;99670.03;4882692;29;20071;-74
2021/01/18 13:54:47;;;;;;;8.25;3.63;;;;;;;3.54;80.43;99674.78;4883123;29;20041;-74
2021/01/18 13:57:12;;;;;;;11.45;3.78;;;;;;;3.45;81.21;99676.25;4882953;29;20103;-74
2021/01/18 13:59:38;;;;;;;8.75;3.03;;;;;;;3.37;80.56;99665.78;4883060;29;20032;-74
2021/01/18 14:02:03;;;;;;;11.23;4.03;;;;;;;3.40;81.09;99665.88;4882538;29;20514;-74
2021/01/18 14:04:28;;;;;;;6.60;3.85;;;;;;;3.61;81.03;99656.16;4882802;29;20033;-74
2021/01/18 14:06:54;;;;;;;9.35;3.90;;;;;;;3.59;80.00;99652.69;4882876;29;20036;-74
2021/01/18 14:09:19;;;;;;;10.00;3.17;;;;;;;3.52;81.14;99644.81;4882058;29;20077;-74
2021/01/18 14:11:47;;;;;;;12.23;3.60;;;;;;;3.60;79.53;99651.84;4882523;29;20159;-75
2021/01/18 14:14:12;;;;;;;12.77;3.72;;;;;;;3.43;81.72;99652.28;4882447;29;20032;-74
2021/01/18 14:16:40;;;;;;;10.80;2.80;;;;;;;3.66;79.64;99651.13;4882975;29;20035;-75
2021/01/18 14:19:06;;;;;;;9.32;3.45;;;;;;;3.37;81.51;99647.00;4882657;29;20027;-74
2021/01/18 14:21:32;;;;;;;7.93;3.05;;;;;;;3.39;82.22;99647.94;4882691;29;20561;-74
2021/01/18 14:24:04;;;;;;;10.43;3.45;;;;;;;3.39;79.70;99651.34;4882297;29;20044;-74
2021/01/18 14:26:34;;;;;;;8.23;3.25;;;;;;;3.25;82.50;99656.13;4882621;29;20439;-74
2021/01/18 14:29:00;;;;;;;7.88;3.13;;;;;;;3.16;83.56;99655.03;4882604;29;20035;-74
2021/01/18 14:31:28;;;;;;;12.05;3.30;;;;;;;3.05;84.21;99654.75;4882507;29;20084;-75
2021/01/18 14:33:56;;;;;;;8.50;3.22;;;;;;;2.86;85.31;99655.94;4882559;29;20025;-75
2021/01/18 14:36:22;;;;;;;11.95;4.10;;;;;;;3.00;84.36;99654.63;4882725;29;20039;-74
2021/01/18 14:38:49;;;;;;;18.85;4.45;;;;;;;3.06;84.74;99653.91;4882505;29;20068;-74
2021/01/18 14:41:25;;;;;;;9.02;4.00;;;;;;;3.18;84.05;99653.34;4881065;29;20028;-74
2021/01/18 14:43:51;;;;;;;4.25;3.30;;;;;;;3.22;83.72;99650.06;4882266;29;20037;-75
2021/01/18 14:46:17;;;;;;;9.32;3.75;;;;;;;3.29;83.09;99652.81;4882249;29;20028;-74
2021/01/18 14:48:44;;;;;;;12.27;4.30;;;;;;;3.23;83.49;99652.63;4881690;29;20048;-75
2021/01/18 14:51:15;;;;;;;5.35;3.85;;;;;;;3.33;82.92;99649.47;4881864;29;20064;-75
2021/01/18 14:53:40;;;;;;;8.63;4.05;;;;;;;3.17;82.74;99652.50;4882329;29;20029;-74
2021/01/18 14:56:06;;;;;;;10.75;4.00;;;;;;;3.17;84.07;99652.50;4882028;29;20554;-75
2021/01/18 14:58:31;;;;;;;7.93;3.85;;;;;;;3.07;84.60;99640.28;4882086;29;20394;-74
2021/01/18 15:00:56;;;;;;;9.27;3.70;;;;;;;3.10;83.89;99650.63;4881738;29;20036;-75
2021/01/18 15:03:21;;;;;;;8.95;4.57;;;;;;;3.01;84.23;99650.38;4881100;29;20421;-74
2021/01/18 15:05:47;;;;;;;7.93;3.53;;;;;;;3.05;82.82;99641.94;4882070;29;20107;-74
2021/01/18 15:08:13;;;;;;;11.30;3.65;;;;;;;3.13;80.80;99643.00;4881899;29;20390;-74
2021/01/18 15:10:39;;;;;;;11.30;3.92;;;;;;;3.11;82.70;99646.34;4882382;29;20089;-74
2021/01/18 15:13:05;;;;;;;10.38;3.78;;;;;;;3.08;82.01;99639.44;4881858;29;20491;-74
2021/01/18 15:15:31;;;;;;;6.20;3.42;;;;;;;2.99;83.67;99646.88;4881648;29;20123;-75
2021/01/18 15:17:57;;;;;;;6.45;3.17;;;;;;;2.99;82.36;99649.44;4881460;29;20033;-73
2021/01/18 15:20:22;;;;;;;6.63;3.17;;;;;;;3.16;82.09;99644.78;4882491;29;20435;-74
2021/01/18 15:22:48;;;;;;;3.65;3.08;;;;;;;3.06;81.01;99643.69;4885686;29;20101;-73
2021/01/18 15:25:13;;;;;;;6.20;3.05;;;;;;;2.86;80.92;99644.84;4885656;29;20036;-73
2021/01/18 15:27:39;;;;;;;11.10;2.88;;;;;;;2.82;80.15;99639.66;4885730;29;20040;-74
2021/01/18 15:30:06;;;;;;;12.38;3.80;;;;;;;2.65;83.15;99633.19;4885642;29;20060;-73
2021/01/18 15:32:31;;;;;;;6.07;3.05;;;;;;;2.80;82.85;99631.06;4885293;29;20029;-73
2021/01/18 15:34:56;;;;;;;8.45;2.78;;;;;;;2.66;81.68;99632.38;4885220;29;20111;-76
2021/01/18 15:37:22;;;;;;;6.22;3.10;;;;;;;2.73;80.52;99639.41;4885425;29;20043;-75
2021/01/18 15:39:47;;;;;;;9.68;4.20;;;;;;;2.60;82.54;99634.75;4884638;29;20029;-74
2021/01/18 15:42:12;;;;;;;8.98;3.30;;;;;;;2.68;81.56;99630.72;4884986;29;20029;-73
2021/01/18 15:44:38;;;;;;;11.95;3.58;;;;;;;2.58;82.22;99638.97;4885415;29;20059;-74
2021/01/18 15:47:03;;;;;;;9.63;3.40;;;;;;;2.46;82.93;99636.06;4885108;29;20112;-73
2021/01/18 15:49:29;;;;;;;4.85;2.88;;;;;;;2.47;83.71;99642.94;4884921;29;20033;-74
2021/01/18 15:51:54;;;;;;;11.15;3.10;;;;;;;2.40;84.48;99646.13;4884657;29;20088;-74
2021/01/18 15:54:19;;;;;;;11.77;4.05;;;;;;;2.55;83.82;99649.13;4885142;29;20039;-74
2021/01/18 15:56:45;;;;;;;14.10;3.78;;;;;;;2.55;84.92;99649.97;4885232;29;20414;-73
2021/01/18 15:59:10;;;;;;;6.40;3.88;;;;;;;2.51;83.44;99652.41;4885201;29;20033;-76
2021/01/18 16:01:35;;;;;;;6.53;3.33;;;;;;;2.54;83.80;99657.63;4884667;29;20036;-76
2021/01/18 16:04:01;;;;;;;6.88;3.00;;;;;;;2.45;83.71;99665.03;4885024;29;20064;-76
2021/01/18 16:06:26;;;;;;;14.35;4.55;;;;;;;2.54;83.70;99652.50;4884917;29;20043;-74
2021/01/18 16:08:52;;;;;;;9.88;4.75;;;;;;;2.36;84.85;99659.63;4884877;29;20427;-73
2021/01/18 16:11:29;;;;;;;11.23;5.10;;;;;;;2.27;85.85;99653.47;4885062;29;20056;-74
2021/01/18 16:13:54;;;;;;;13.10;5.97;;;;;;;2.34;85.95;99659.59;4884868;29;20032;-74
2021/01/18 16:16:20;;;;;;;32.92;13.82;;;;;;;2.34;83.38;99658.75;4885055;29;20422;-73
2021/01/18 16:18:46;;;;;;;18.60;8.45;;;;;;;2.19;86.13;99665.13;4884260;29;20036;-73
2021/01/18 16:21:11;;;;;;;16.15;9.70;;;;;;;2.28;85.65;99664.56;4884689;29;20116;-75
2021/01/18 16:23:37;;;;;;;23.52;7.88;;;;;;;2.29;85.57;99672.25;4883830;29;20033;-73
2021/01/18 16:26:03;;;;;;;14.10;6.38;;;;;;;2.33;86.40;99672.34;4884465;29;20036;-73
2021/01/18 16:28:29;;;;;;;21.55;7.70;;;;;;;2.12;86.29;99683.66;4884648;29;20084;-74
2021/01/18 16:30:54;;;;;;;19.30;9.18;;;;;;;2.19;86.52;99685.59;4884770;29;20037;-75
2021/01/18 16:33:20;;;;;;;28.00;13.40;;;;;;;2.18;86.88;99688.97;4883879;29;20033;-75
2021/01/18 16:35:46;;;;;;;18.30;10.10;;;;;;;2.41;86.02;99699.88;4885054;29;20032;-73
2021/01/18 16:38:15;;;;;;;32.10;12.35;;;;;;;2.13;87.25;99687.06;4884556;29;20150;-73
2021/01/18 16:40:40;;;;;;;43.15;16.00;;;;;;;2.05;86.71;99697.09;4884289;29;20036;-73
2021/01/18 16:43:06;;;;;;;44.35;21.42;;;;;;;2.21;86.50;99691.59;4884665;29;20032;-73
2021/01/18 16:45:32;;;;;;;40.05;18.38;;;;;;;2.04;87.58;99693.66;4884354;29;20024;-75
2021/01/18 16:47:58;;;;;;;44.80;20.55;;;;;;;1.97;88.23;99703.63;4884379;29;20033;-76
2021/01/18 16:50:24;;;;;;;25.40;15.25;;;;;;;1.95;88.35;99706.16;4883974;29;20072;-75
2021/01/18 16:52:49;;;;;;;31.73;15.50;;;;;;;1.92;87.92;99707.75;4883927;29;20452;-73
2021/01/18 16:55:15;;;;;;;24.65;16.08;;;;;;;1.91;87.58;99706.88;4884498;29;20033;-73
2021/01/18 16:57:41;;;;;;;17.90;9.65;;;;;;;2.15;86.95;99703.34;4884176;29;20029;-73
2021/01/18 17:00:13;;;;;;;15.80;9.90;;;;;;;2.02;86.83;99699.53;4884126;29;20088;-73
2021/01/18 17:02:38;;;;;;;15.88;9.18;;;;;;;2.26;84.72;99697.72;4884020;29;20451;-73
2021/01/18 17:05:09;;;;;;;17.75;10.60;;;;;;;2.06;85.87;99694.56;4883887;29;20029;-73
2021/01/18 17:07:35;;;;;;;14.48;9.68;;;;;;;2.26;84.73;99696.84;4883847;29;20036;-73
2021/01/18 17:10:01;;;;;;;19.70;11.95;;;;;;;2.11;84.85;99692.16;4883802;29;20044;-73
2021/01/18 17:12:26;;;;;;;20.23;9.93;;;;;;;2.19;83.07;99685.59;4883832;29;20068;-73
2021/01/18 17:14:51;;;;;;;19.55;9.55;;;;;;;2.33;82.41;99685.16;4883906;29;20036;-72
2021/01/18 17:17:17;;;;;;;15.07;8.02;;;;;;;2.20;80.77;99692.44;4884048;29;20029;-72
2021/01/18 17:19:45;;;;;;;12.55;8.13;;;;;;;2.08;84.04;99689.53;4883908;29;20125;-72
2021/01/18 17:22:11;;;;;;;16.00;8.52;;;;;;;2.03;83.06;99688.47;4884084;29;20447;-72
2021/01/18 17:24:38;;;;;;;12.55;6.03;;;;;;;2.04;82.52;99686.00;4884151;29;20033;-73
2021/01/18 17:27:04;;;;;;;10.98;5.82;;;;;;;2.09;80.50;99686.13;4884017;29;20044;-73
2021/01/18 17:29:30;;;;;;;9.32;4.63;;;;;;;2.14;80.40;99676.91;4883754;29;20044;-73
2021/01/18 17:31:55;;;;;;;6.32;3.35;;;;;;;2.25;78.03;99675.53;4883682;29;20671;-73
2021/01/18 17:34:21;;;;;;;9.43;3.60;;;;;;;2.31;79.15;99680.81;4883775;29;20042;-73
2021/01/18 17:36:50;;;;;;;8.07;4.10;;;;;;;2.33;76.86;99683.44;4883677;29;20032;-73
2021/01/18 17:39:16;;;;;;;9.27;3.90;;;;;;;2.23;77.86;99687.44;4883517;29;20032;-73
2021/01/18 17:41:41;;;;;;;7.88;4.30;;;;;;;2.29;80.77;99691.84;4883449;29;20040;-73